Time;durP1;ratioP1;P1;durP2;ratioP2;P2;SDS_P1;SDS_P2;PMS_P1;PMS_P2;Temp;Humidity;BMP_temperature;BMP_pressure;BME280_temperature;BME280_humidity;BME280_pressure;Samples;Min_cycle;Max_cycle;Signal;HPM_P1;HPM_P2
2023/10/27 00:02:24;;;;;;;16.50;5.33;;;;;;;9.13;100.00;95250.59;5078955;28;20468;-80
2023/10/27 00:04:51;;;;;;;17.85;5.55;;;;;;;9.11;100.00;95250.09;5079291;28;20878;-79
2023/10/27 00:07:17;;;;;;;8.93;4.63;;;;;;;9.11;100.00;95255.38;5078190;28;20784;-80
2023/10/27 00:09:43;;;;;;;11.07;4.82;;;;;;;9.09;100.00;95247.00;5079044;28;20864;-80
2023/10/27 00:12:09;;;;;;;13.43;5.00;;;;;;;9.11;100.00;95251.97;5079999;28;20617;-79
2023/10/27 00:14:35;;;;;;;14.02;4.72;;;;;;;9.10;100.00;95242.47;5080814;28;20391;-80
2023/10/27 00:17:03;;;;;;;7.65;3.70;;;;;;;9.10;100.00;95248.53;5083612;28;20466;-80
2023/10/27 00:19:29;;;;;;;7.93;3.55;;;;;;;9.11;100.00;95241.41;5083293;28;20398;-79
2023/10/27 00:21:55;;;;;;;10.43;4.00;;;;;;;9.10;100.00;95242.47;5088975;28;20392;-79
2023/10/27 00:24:22;;;;;;;8.18;3.90;;;;;;;9.09;100.00;95241.72;5084491;28;20395;-80
2023/10/27 00:26:48;;;;;;;7.07;3.25;;;;;;;9.09;100.00;95246.22;5083119;28;20403;-79
2023/10/27 00:29:14;;;;;;;9.63;3.90;;;;;;;9.09;100.00;95246.22;5085109;28;20426;-79
2023/10/27 00:31:40;;;;;;;10.63;3.92;;;;;;;9.07;100.00;95240.44;5101593;28;20452;-79
2023/10/27 00:34:08;;;;;;;10.10;3.97;;;;;;;9.06;100.00;95238.88;5105069;28;20915;-79
2023/10/27 00:36:34;;;;;;;7.63;3.60;;;;;;;9.04;100.00;95236.53;5106138;28;20402;-80
2023/10/27 00:39:00;;;;;;;13.88;4.40;;;;;;;9.02;100.00;95243.94;5104054;28;20941;-79
2023/10/27 00:41:28;;;;;;;11.98;4.22;;;;;;;9.01;100.00;95246.91;5103331;28;20850;-79
2023/10/27 00:43:54;;;;;;;8.02;3.97;;;;;;;9.00;100.00;95250.59;5110873;28;20438;-80
2023/10/27 00:46:21;;;;;;;10.10;4.10;;;;;;;8.98;100.00;95245.63;5082074;28;20423;-80
2023/10/27 00:48:47;;;;;;;15.70;5.28;;;;;;;8.98;100.00;95236.91;5082942;28;20394;-80
2023/10/27 00:51:15;;;;;;;11.30;4.40;;;;;;;8.95;100.00;95235.63;5082272;28;20416;-79
2023/10/27 00:53:41;;;;;;;12.32;4.38;;;;;;;8.93;100.00;95241.22;5083260;28;20449;-80
2023/10/27 00:56:08;;;;;;;15.00;5.03;;;;;;;8.92;100.00;95241.50;5082132;28;20771;-79
2023/10/27 00:58:34;;;;;;;19.80;5.28;;;;;;;8.90;100.00;95241.81;5082466;28;20437;-80
2023/10/27 01:01:01;;;;;;;9.48;4.50;;;;;;;8.88;100.00;95230.75;5082377;28;20396;-79
2023/10/27 01:03:29;;;;;;;8.10;4.03;;;;;;;8.88;100.00;95222.06;5082217;28;20609;-79
2023/10/27 01:05:55;;;;;;;12.00;4.35;;;;;;;8.88;100.00;95222.84;5088781;28;20395;-80
2023/10/27 01:08:23;;;;;;;5.95;3.58;;;;;;;8.88;100.00;95216.78;5083348;28;20456;-80
2023/10/27 01:10:49;;;;;;;6.53;3.08;;;;;;;8.88;100.00;95224.69;5083810;28;20420;-79
2023/10/27 01:13:15;;;;;;;6.70;3.10;;;;;;;8.88;100.00;95224.69;5082838;28;20490;-79
2023/10/27 01:15:41;;;;;;;8.07;3.15;;;;;;;8.87;100.00;95220.50;5083323;28;20392;-80
2023/10/27 01:18:07;;;;;;;9.68;3.58;;;;;;;8.86;100.00;95221.59;5081683;28;20427;-80
2023/10/27 01:20:34;;;;;;;8.57;3.67;;;;;;;8.83;100.00;95215.03;5081551;28;20499;-80
2023/10/27 01:23:03;;;;;;;10.32;3.85;;;;;;;8.81;100.00;95216.38;5081857;28;20399;-79
2023/10/27 01:25:29;;;;;;;13.48;3.63;;;;;;;8.78;100.00;95215.13;5081400;28;20396;-79
2023/10/27 01:27:57;;;;;;;9.38;3.80;;;;;;;8.77;100.00;95203.00;5081279;28;20400;-80
2023/10/27 01:30:24;;;;;;;9.30;3.92;;;;;;;8.75;100.00;95202.50;5082937;28;20415;-79
2023/10/27 01:32:50;;;;;;;9.52;3.60;;;;;;;8.75;100.00;95199.88;5089528;28;20758;-80
2023/10/27 01:35:16;;;;;;;8.32;3.65;;;;;;;8.75;100.00;95196.44;5101194;28;20390;-79
2023/10/27 01:37:43;;;;;;;9.63;4.10;;;;;;;8.75;100.00;95199.09;5101557;28;20882;-79
2023/10/27 01:40:11;;;;;;;5.97;3.55;;;;;;;8.74;100.00;95190.41;5100633;28;20401;-79
2023/10/27 01:42:37;;;;;;;16.13;4.85;;;;;;;8.72;100.00;95197.06;5100684;28;20409;-80
2023/10/27 01:45:05;;;;;;;10.23;4.35;;;;;;;8.69;100.00;95201.06;5083385;28;20420;-79
2023/10/27 01:47:31;;;;;;;10.55;4.30;;;;;;;8.69;100.00;95195.00;5080477;28;20407;-80
2023/10/27 01:49:57;;;;;;;14.20;4.13;;;;;;;8.68;100.00;95193.41;5079944;28;20477;-79
2023/10/27 01:52:24;;;;;;;12.05;4.63;;;;;;;8.66;100.00;95195.56;5079827;28;20391;-80
2023/10/27 01:54:50;;;;;;;18.15;5.22;;;;;;;8.64;100.00;95192.47;5079791;28;20431;-79
2023/10/27 01:57:18;;;;;;;14.50;5.15;;;;;;;8.63;100.00;95183.75;5080458;28;20902;-80
2023/10/27 01:59:44;;;;;;;11.10;4.30;;;;;;;8.62;100.00;95184.84;5080627;28;20400;-79
2023/10/27 02:02:13;;;;;;;6.50;3.75;;;;;;;8.62;100.00;95182.19;5080824;28;20395;-79
2023/10/27 02:04:39;;;;;;;5.85;3.67;;;;;;;8.63;100.00;95175.84;5080508;28;20422;-80
2023/10/27 02:07:06;;;;;;;6.07;3.20;;;;;;;8.65;100.00;95178.97;5080758;28;20403;-79
2023/10/27 02:09:32;;;;;;;7.93;3.53;;;;;;;8.65;100.00;95173.69;5080067;28;20392;-80
2023/10/27 02:11:58;;;;;;;8.52;3.60;;;;;;;8.66;100.00;95169.97;5080962;28;20467;-80
2023/10/27 02:14:26;;;;;;;5.90;3.35;;;;;;;8.65;100.00;95173.69;5080714;28;20422;-80
2023/10/27 02:16:52;;;;;;;6.05;3.03;;;;;;;8.66;100.00;95177.09;5080450;28;20837;-79
2023/10/27 02:19:19;;;;;;;5.47;2.85;;;;;;;8.67;100.00;95178.66;5080810;28;20396;-80
2023/10/27 02:21:46;;;;;;;4.60;2.70;;;;;;;8.67;100.00;95174.19;5080265;28;20434;-80
2023/10/27 02:24:12;;;;;;;3.72;2.22;;;;;;;8.68;100.00;95175.75;5080093;28;20510;-80
2023/10/27 02:26:38;;;;;;;3.58;2.30;;;;;;;8.69;100.00;95174.69;5080154;28;20494;-79
2023/10/27 02:29:04;;;;;;;4.32;2.58;;;;;;;8.70;100.00;95165.69;5080321;28;20392;-79
2023/10/27 02:31:32;;;;;;;3.67;2.38;;;;;;;8.71;100.00;95171.75;5080021;28;20483;-80
2023/10/27 02:33:58;;;;;;;3.83;2.42;;;;;;;8.70;100.00;95175.47;5098860;28;20406;-80
2023/10/27 02:36:25;;;;;;;3.92;2.40;;;;;;;8.69;100.00;95171.25;5100872;28;20488;-80
2023/10/27 02:38:51;;;;;;;3.58;2.15;;;;;;;8.68;100.00;95167.06;5102585;28;20435;-79
2023/10/27 02:41:17;;;;;;;5.53;2.22;;;;;;;8.67;100.00;95176.03;5100111;28;20417;-80
2023/10/27 02:43:43;;;;;;;4.18;2.40;;;;;;;8.66;100.00;95172.59;5093880;28;20405;-80
2023/10/27 02:46:12;;;;;;;8.80;3.20;;;;;;;8.65;100.00;95178.97;5080261;28;20459;-80
2023/10/27 02:48:42;;;;;;;6.27;2.63;;;;;;;8.64;100.00;95174.00;5079723;28;20917;-80
2023/10/27 02:51:08;;;;;;;4.35;2.60;;;;;;;8.64;100.00;95166.88;5079335;28;20411;-80
2023/10/27 02:53:35;;;;;;;7.05;3.08;;;;;;;8.65;100.00;95157.84;5080731;28;20391;-80
2023/10/27 02:56:05;;;;;;;6.03;3.15;;;;;;;8.65;100.00;95157.06;5079848;28;20402;-79
2023/10/27 02:58:31;;;;;;;7.38;2.90;;;;;;;8.64;100.00;95152.91;5081068;28;20376;-80
2023/10/27 03:00:57;;;;;;;5.97;3.10;;;;;;;8.64;100.00;95150.25;5079831;28;20399;-80
2023/10/27 03:03:24;;;;;;;5.38;2.60;;;;;;;8.62;100.00;95145.28;5079459;28;20790;-80
2023/10/27 03:05:52;;;;;;;6.13;2.97;;;;;;;8.62;100.00;95153.19;5081220;28;20388;-80
2023/10/27 03:08:18;;;;;;;8.30;3.10;;;;;;;8.62;100.00;95149.75;5079220;28;20453;-79
2023/10/27 03:10:44;;;;;;;5.15;2.75;;;;;;;8.61;100.00;95159.53;5080917;28;20419;-79
2023/10/27 03:13:10;;;;;;;10.90;3.53;;;;;;;8.61;100.00;95148.97;5082378;28;20426;-79
2023/10/27 03:15:36;;;;;;;16.63;4.45;;;;;;;8.58;100.00;95148.78;5081297;28;20411;-79
2023/10/27 03:18:03;;;;;;;7.63;3.60;;;;;;;8.57;100.00;95144.59;5079222;28;20402;-79
2023/10/27 03:20:29;;;;;;;6.25;3.25;;;;;;;8.58;100.00;95143.50;5078784;28;20396;-79
2023/10/27 03:22:57;;;;;;;8.25;3.20;;;;;;;8.59;100.00;95145.84;5079658;28;20418;-79
2023/10/27 03:25:23;;;;;;;4.80;2.80;;;;;;;8.62;100.00;95137.38;5078878;28;20430;-79
2023/10/27 03:27:49;;;;;;;4.05;2.70;;;;;;;8.65;100.00;95144.66;5078087;28;20414;-79
2023/10/27 03:30:16;;;;;;;5.18;2.97;;;;;;;8.65;100.00;95139.41;5077483;28;20426;-79
2023/10/27 03:32:42;;;;;;;5.05;2.58;;;;;;;8.66;100.00;95148.09;5089767;28;20386;-79
2023/10/27 03:35:08;;;;;;;3.97;2.60;;;;;;;8.65;100.00;95142.03;5098503;28;20394;-79
2023/10/27 03:37:35;;;;;;;6.38;2.67;;;;;;;8.66;100.00;95151.50;5097609;28;20395;-79
2023/10/27 03:40:04;;;;;;;3.60;2.33;;;;;;;8.66;100.00;95148.88;5098347;28;20405;-79
2023/10/27 03:42:30;;;;;;;3.45;2.13;;;;;;;8.65;100.00;95147.31;5113467;28;20412;-79
2023/10/27 03:44:56;;;;;;;3.85;2.10;;;;;;;8.65;100.00;95135.97;5081728;28;20400;-79
2023/10/27 03:47:23;;;;;;;2.85;2.00;;;;;;;8.65;100.00;95128.84;5077094;28;20437;-79
2023/10/27 03:49:49;;;;;;;3.92;2.00;;;;;;;8.67;100.00;95118.00;5076901;28;20416;-80
2023/10/27 03:52:16;;;;;;;3.03;1.90;;;;;;;8.66;100.00;95122.50;5075491;28;20842;-78
2023/10/27 03:54:42;;;;;;;2.75;1.80;;;;;;;8.66;100.00;95121.72;5075769;28;20417;-78
2023/10/27 03:57:10;;;;;;;2.73;2.00;;;;;;;8.65;100.00;95118.31;5077867;28;20547;-79
2023/10/27 03:59:36;;;;;;;4.00;2.30;;;;;;;8.64;100.00;95124.66;5078360;28;20438;-79
2023/10/27 04:02:02;;;;;;;5.38;2.45;;;;;;;8.65;100.00;95122.78;5093841;28;20404;-79
2023/10/27 04:04:28;;;;;;;5.30;2.60;;;;;;;8.61;100.00;95119.97;5078842;28;20699;-78
2023/10/27 04:06:56;;;;;;;15.25;4.65;;;;;;;8.59;100.00;95121.34;5077170;28;20403;-79
2023/10/27 04:09:22;;;;;;;12.40;4.90;;;;;;;8.51;100.00;95123.59;5095370;28;20478;-79
2023/10/27 04:11:49;;;;;;;12.77;4.93;;;;;;;8.50;100.00;95123.88;5081589;28;20403;-79
2023/10/27 04:14:17;;;;;;;9.75;4.38;;;;;;;8.50;100.00;95122.00;5068615;28;20394;-79
2023/10/27 04:16:43;;;;;;;13.20;5.53;;;;;;;8.48;100.00;95132.09;5069802;28;20400;-78
2023/10/27 04:19:09;;;;;;;22.00;6.23;;;;;;;8.45;100.00;95124.75;5075049;28;20816;-80
2023/10/27 04:21:35;;;;;;;10.60;4.75;;;;;;;8.44;100.00;95120.56;5093262;28;20793;-79
2023/10/27 04:24:02;;;;;;;16.38;6.10;;;;;;;8.46;100.00;95130.81;5091230;28;20396;-80
2023/10/27 04:26:28;;;;;;;10.50;4.53;;;;;;;8.44;100.00;95136.38;5076269;28;20399;-79
2023/10/27 04:28:54;;;;;;;12.02;4.70;;;;;;;8.42;100.00;95125.31;5076015;28;20748;-79
2023/10/27 04:31:22;;;;;;;10.77;4.73;;;;;;;8.42;100.00;95130.59;5075630;28;20744;-80
2023/10/27 04:33:48;;;;;;;12.00;4.50;;;;;;;8.40;100.00;95126.72;5077366;28;20407;-81
2023/10/27 04:36:15;;;;;;;7.05;4.07;;;;;;;8.40;100.00;95124.84;5075862;28;20423;-80
2023/10/27 04:38:42;;;;;;;12.90;4.07;;;;;;;8.41;100.00;95123.78;5075148;28;20392;-81
2023/10/27 04:41:09;;;;;;;12.55;3.75;;;;;;;8.41;100.00;95126.44;5074872;28;20410;-80
2023/10/27 04:43:35;;;;;;;6.57;3.17;;;;;;;8.42;100.00;95124.56;5075276;28;20395;-79
2023/10/27 04:46:02;;;;;;;5.35;3.03;;;;;;;8.44;100.00;95131.09;5073753;28;20400;-78
2023/10/27 04:48:29;;;;;;;6.57;2.92;;;;;;;8.45;100.00;95135.31;5075760;28;20387;-79
2023/10/27 04:50:58;;;;;;;9.27;3.40;;;;;;;8.45;100.00;95140.56;5076318;28;20407;-80
2023/10/27 04:53:25;;;;;;;6.70;2.97;;;;;;;8.47;100.00;95140.28;5078464;28;20487;-80
2023/10/27 04:55:51;;;;;;;7.15;3.28;;;;;;;8.47;100.00;95135.78;5079555;28;20396;-82
2023/10/27 04:58:17;;;;;;;4.82;2.40;;;;;;;8.49;100.00;95133.63;5078980;28;20494;-82
2023/10/27 05:00:43;;;;;;;5.90;2.78;;;;;;;8.50;100.00;95123.88;5076394;28;20498;-79
2023/10/27 05:03:09;;;;;;;5.57;2.30;;;;;;;8.51;100.00;95128.06;5079378;28;20486;-81
2023/10/27 05:05:37;;;;;;;11.20;3.50;;;;;;;8.50;100.00;95137.03;5082669;28;20400;-81
2023/10/27 05:08:04;;;;;;;7.50;2.85;;;;;;;8.51;100.00;95141.25;5081908;28;20408;-82
2023/10/27 05:10:30;;;;;;;6.32;2.90;;;;;;;8.50;100.00;95142.31;5080490;28;20767;-80
2023/10/27 05:12:56;;;;;;;9.43;3.00;;;;;;;8.49;100.00;95149.44;5079276;28;21024;-81
2023/10/27 05:15:22;;;;;;;7.50;2.60;;;;;;;8.47;100.00;95151.63;5077485;28;20737;-79
2023/10/27 05:17:49;;;;;;;4.60;2.50;;;;;;;8.46;100.00;95151.91;5078768;28;20418;-80
2023/10/27 05:20:16;;;;;;;6.68;2.67;;;;;;;8.45;100.00;95152.97;5086327;28;20396;-80
2023/10/27 05:22:43;;;;;;;7.28;2.60;;;;;;;8.44;100.00;95146.13;5078414;28;20407;-80
2023/10/27 05:25:09;;;;;;;6.17;2.80;;;;;;;8.42;100.00;95146.41;5080174;28;20408;-80
2023/10/27 05:27:36;;;;;;;4.78;2.60;;;;;;;8.42;100.00;95148.31;5079621;28;20396;-80
2023/10/27 05:30:04;;;;;;;5.65;2.67;;;;;;;8.42;100.00;95151.69;5078804;28;20438;-80
2023/10/27 05:32:32;;;;;;;5.88;2.90;;;;;;;8.43;100.00;95153.25;5078972;28;20396;-81
2023/10/27 05:34:59;;;;;;;4.68;2.80;;;;;;;8.43;100.00;95153.25;5080304;28;20911;-79
2023/10/27 05:37:26;;;;;;;6.25;2.58;;;;;;;8.43;100.00;95152.47;5081867;28;20404;-80
2023/10/27 05:39:54;;;;;;;4.15;2.30;;;;;;;8.44;100.00;95152.19;5082302;28;20458;-79
2023/10/27 05:42:20;;;;;;;5.60;2.10;;;;;;;8.47;100.00;95158.75;5081052;28;20392;-80
2023/10/27 05:44:46;;;;;;;3.28;2.17;;;;;;;8.50;100.00;95166.06;5081784;28;20418;-79
2023/10/27 05:47:12;;;;;;;3.88;2.20;;;;;;;8.52;100.00;95161.28;5083275;28;20479;-81
2023/10/27 05:49:38;;;;;;;3.38;2.22;;;;;;;8.53;100.00;95170.75;5082422;28;20400;-80
2023/10/27 05:52:05;;;;;;;3.65;2.13;;;;;;;8.55;100.00;95179.16;5091606;28;20955;-79
2023/10/27 05:54:31;;;;;;;3.10;2.00;;;;;;;8.56;100.00;95172.81;5076097;28;20403;-78
2023/10/27 05:56:58;;;;;;;2.40;1.80;;;;;;;8.57;100.00;95171.72;5076647;28;20879;-79
2023/10/27 05:59:25;;;;;;;3.88;2.13;;;;;;;8.58;100.00;95183.06;5083452;28;20810;-79
2023/10/27 06:01:53;;;;;;;3.15;1.98;;;;;;;8.58;100.00;95191.75;5083215;28;20447;-78
2023/10/27 06:04:20;;;;;;;3.80;2.30;;;;;;;8.57;100.00;95192.81;5081099;28;20876;-78
2023/10/27 06:06:46;;;;;;;4.03;2.50;;;;;;;8.58;100.00;95206.78;5081080;28;20387;-78
2023/10/27 06:09:12;;;;;;;4.88;2.40;;;;;;;8.58;100.00;95201.50;5078934;28;20420;-79
2023/10/27 06:11:38;;;;;;;6.40;2.70;;;;;;;8.57;100.00;95198.09;5078465;28;20412;-79
2023/10/27 06:14:06;;;;;;;8.02;3.10;;;;;;;8.56;100.00;95207.09;5077096;28;20435;-79
2023/10/27 06:16:32;;;;;;;9.52;3.78;;;;;;;8.55;100.00;95216.06;5077656;28;20414;-80
2023/10/27 06:18:59;;;;;;;6.88;3.65;;;;;;;8.53;100.00;95221.63;5077350;28;20392;-80
2023/10/27 06:21:27;;;;;;;9.45;4.10;;;;;;;8.53;100.00;95224.28;5077862;28;20400;-79
2023/10/27 06:23:53;;;;;;;11.87;4.97;;;;;;;8.51;100.00;95236.16;5077763;28;20410;-81
2023/10/27 06:26:19;;;;;;;10.98;4.85;;;;;;;8.50;100.00;95231.97;5078655;28;20427;-81
2023/10/27 06:28:46;;;;;;;10.70;4.93;;;;;;;8.51;100.00;95234.31;5078751;28;20502;-81
2023/10/27 06:31:13;;;;;;;13.63;5.30;;;;;;;8.50;100.00;95232.75;5078318;28;20416;-81
2023/10/27 06:33:39;;;;;;;9.18;4.40;;;;;;;8.51;100.00;95250.13;5094283;28;20402;-82
2023/10/27 06:36:06;;;;;;;8.63;4.35;;;;;;;8.54;100.00;95243.50;5099109;28;20406;-81
2023/10/27 06:38:32;;;;;;;7.88;4.00;;;;;;;8.56;100.00;95243.22;5098821;28;20397;-81
2023/10/27 06:40:59;;;;;;;8.45;3.90;;;;;;;8.58;100.00;95247.13;5098791;28;20402;-81
2023/10/27 06:43:26;;;;;;;8.82;3.70;;;;;;;8.60;100.00;95260.81;5096212;28;20400;-81
2023/10/27 06:45:52;;;;;;;17.70;6.20;;;;;;;8.57;100.00;95253.47;5078844;28;20790;-81
2023/10/27 06:48:19;;;;;;;13.80;5.72;;;;;;;8.57;100.00;95256.09;5078934;28;20941;-81
2023/10/27 06:50:46;;;;;;;11.50;4.80;;;;;;;8.56;100.00;95259.84;5079743;28;20418;-81
2023/10/27 06:53:12;;;;;;;12.07;4.95;;;;;;;8.55;100.00;95255.63;5080068;28;20437;-81
2023/10/27 06:55:38;;;;;;;8.35;4.22;;;;;;;8.57;100.00;95256.09;5081575;28;20419;-81
2023/10/27 06:58:04;;;;;;;6.63;3.53;;;;;;;8.62;100.00;95263.16;5079074;28;20474;-81
2023/10/27 07:00:30;;;;;;;9.32;3.92;;;;;;;8.64;100.00;95259.16;5079485;28;20403;-81
2023/10/27 07:02:57;;;;;;;8.07;3.70;;;;;;;8.68;100.00;95265.41;5079250;28;20442;-81
2023/10/27 07:05:24;;;;;;;5.82;3.10;;;;;;;8.75;100.00;95262.41;5080000;28;20825;-81
2023/10/27 07:07:51;;;;;;;5.65;2.95;;;;;;;8.80;100.00;95262.28;5085478;28;20411;-80
2023/10/27 07:10:17;;;;;;;5.72;3.00;;;;;;;8.84;100.00;95263.28;5077848;28;20447;-80
2023/10/27 07:12:43;;;;;;;6.85;3.10;;;;;;;8.86;100.00;95272.50;5077365;28;20395;-81
2023/10/27 07:15:10;;;;;;;4.68;2.88;;;;;;;8.87;100.00;95278.56;5072841;28;20423;-82
2023/10/27 07:17:37;;;;;;;6.55;2.80;;;;;;;8.89;100.00;95279.03;5076698;28;20396;-81
2023/10/27 07:20:04;;;;;;;4.22;2.50;;;;;;;8.93;100.00;95280.81;5077415;28;20439;-82
2023/10/27 07:22:31;;;;;;;4.72;2.50;;;;;;;8.96;100.00;95284.69;5081583;28;20399;-80
2023/10/27 07:24:57;;;;;;;4.43;2.42;;;;;;;8.99;100.00;95283.34;5077835;28;20404;-84
2023/10/27 07:27:23;;;;;;;3.30;2.08;;;;;;;9.04;100.00;95288.53;5078238;28;20472;-79
2023/10/27 07:29:50;;;;;;;3.33;1.88;;;;;;;9.09;100.00;95286.59;5078058;28;20396;-78
2023/10/27 07:32:16;;;;;;;6.13;2.92;;;;;;;9.11;100.00;95283.63;5079092;28;20398;-78
2023/10/27 07:34:42;;;;;;;3.77;2.20;;;;;;;9.17;100.00;95287.78;5094865;28;20397;-78
2023/10/27 07:37:08;;;;;;;4.40;2.25;;;;;;;9.21;100.00;95288.72;5074974;28;20567;-81
2023/10/27 07:39:35;;;;;;;3.80;2.00;;;;;;;9.25;100.00;95295.75;5085705;28;20388;-82
2023/10/27 07:42:03;;;;;;;3.17;2.10;;;;;;;9.30;100.00;95295.69;5077869;28;20399;-82
2023/10/27 07:44:29;;;;;;;2.95;1.70;;;;;;;9.36;100.00;95300.84;5077500;28;20396;-82
2023/10/27 07:46:55;;;;;;;3.10;1.88;;;;;;;9.37;100.00;95303.22;5077110;28;20396;-82
2023/10/27 07:49:21;;;;;;;2.88;1.90;;;;;;;9.41;100.00;95306.03;5077684;28;20396;-82
2023/10/27 07:51:48;;;;;;;4.07;1.90;;;;;;;9.41;100.00;95303.38;5077677;28;20430;-83
2023/10/27 07:54:14;;;;;;;3.60;1.80;;;;;;;9.39;100.00;95309.00;5077861;28;20802;-82
2023/10/27 07:56:42;;;;;;;4.65;2.10;;;;;;;9.38;100.00;95312.69;5079825;28;20836;-83
2023/10/27 07:59:08;;;;;;;6.50;1.98;;;;;;;9.29;100.00;95317.09;5078537;28;20482;-83
2023/10/27 08:01:34;;;;;;;2.70;1.60;;;;;;;9.32;100.00;95319.91;5078993;28;20463;-83
2023/10/27 08:04:02;;;;;;;1.88;1.67;;;;;;;9.38;100.00;95330.41;5078905;28;20399;-84
2023/10/27 08:06:29;;;;;;;1.90;1.40;;;;;;;9.46;100.00;95341.06;5078874;28;20409;-83
2023/10/27 08:08:55;;;;;;;1.77;1.35;;;;;;;9.55;100.00;95341.13;5078645;28;20487;-83
2023/10/27 08:11:21;;;;;;;3.60;1.30;;;;;;;9.64;100.00;95345.44;5079703;28;20420;-82
2023/10/27 08:13:49;;;;;;;1.63;1.30;;;;;;;9.76;100.00;95344.19;5080615;28;20422;-82
2023/10/27 08:16:15;;;;;;;1.30;1.20;;;;;;;9.80;100.00;95353.06;5082362;28;20502;-83
2023/10/27 08:18:41;;;;;;;1.35;1.15;;;;;;;9.86;100.00;95354.53;5077925;28;20392;-82
2023/10/27 08:21:08;;;;;;;1.67;1.25;;;;;;;9.92;100.00;95362.03;5078098;28;20487;-82
2023/10/27 08:23:34;;;;;;;2.95;1.75;;;;;;;9.98;100.00;95368.81;5085342;28;20383;-82
2023/10/27 08:26:00;;;;;;;1.50;1.30;;;;;;;10.02;100.00;95369.00;5086888;28;20411;-83
2023/10/27 08:28:27;;;;;;;1.70;1.20;;;;;;;9.99;100.00;95385.47;5079879;28;20400;-81
2023/10/27 08:30:56;;;;;;;2.50;1.20;;;;;;;9.92;100.00;95390.38;5080299;28;21026;-82
2023/10/27 08:33:22;;;;;;;2.00;1.25;;;;;;;9.84;100.00;95385.75;5093244;28;20948;-82
2023/10/27 08:35:48;;;;;;;2.03;1.17;;;;;;;9.76;100.00;95394.38;5112397;28;20436;-82
2023/10/27 08:38:14;;;;;;;1.63;1.23;;;;;;;9.70;100.00;95397.09;5103366;28;20405;-81
2023/10/27 08:40:42;;;;;;;1.90;1.20;;;;;;;9.63;100.00;95402.00;5102780;28;20405;-82
2023/10/27 08:43:08;;;;;;;1.33;1.23;;;;;;;9.59;100.00;95416.88;5103495;28;20425;-82
2023/10/27 08:45:35;;;;;;;2.00;1.20;;;;;;;9.51;100.00;95414.13;5103106;28;20396;-80
2023/10/27 08:48:03;;;;;;;2.35;1.20;;;;;;;9.46;100.00;95411.59;5094912;28;20391;-82
2023/10/27 08:50:31;;;;;;;1.33;1.20;;;;;;;9.41;100.00;95407.16;5091615;28;20502;-82
2023/10/27 08:52:58;;;;;;;2.03;1.08;;;;;;;9.41;100.00;95407.16;5080379;28;20752;-81
2023/10/27 08:55:25;;;;;;;2.70;1.50;;;;;;;9.38;100.00;95405.13;5079166;28;20730;-81
2023/10/27 08:57:55;;;;;;;4.47;1.60;;;;;;;9.26;100.00;95408.22;5080832;28;20399;-83
2023/10/27 09:00:22;;;;;;;2.38;1.33;;;;;;;9.23;100.00;95414.09;5078267;28;20401;-83
2023/10/27 09:02:48;;;;;;;3.50;1.52;;;;;;;9.19;100.00;95410.44;5081431;28;20396;-83
2023/10/27 09:05:16;;;;;;;3.80;1.60;;;;;;;9.15;100.00;95411.31;5081976;28;20407;-83
2023/10/27 09:07:42;;;;;;;1.85;1.33;;;;;;;9.19;100.00;95418.38;5081374;28;20748;-83
2023/10/27 09:10:09;;;;;;;2.17;1.50;;;;;;;9.28;100.00;95426.41;5086629;28;20409;-83
2023/10/27 09:12:37;;;;;;;3.30;1.38;;;;;;;9.34;100.00;95425.25;5102042;28;20398;-82
2023/10/27 09:15:05;;;;;;;6.53;1.70;;;;;;;9.38;100.00;95428.09;5091215;28;20494;-83
2023/10/27 09:17:48;;;;;;;2.10;1.27;;;;;;;9.39;100.00;95424.38;5073797;28;20411;-83
2023/10/27 09:20:17;;;;;;;1.88;1.30;;;;;;;9.38;100.00;95428.09;5077627;28;20403;-83
2023/10/27 09:22:56;;;;;;;1.70;1.20;;;;;;;9.40;100.00;95418.78;5088130;28;20426;-83
2023/10/27 09:25:25;;;;;;;1.40;1.20;;;;;;;9.46;100.00;95424.78;5088136;28;20426;-83
2023/10/27 09:27:52;;;;;;;1.80;1.20;;;;;;;9.49;100.00;95426.81;5101365;28;20888;-81
2023/10/27 09:30:26;;;;;;;1.20;1.10;;;;;;;9.50;100.00;95441.59;5103311;28;20414;-82
2023/10/27 09:32:52;;;;;;;1.10;0.95;;;;;;;9.55;100.00;95449.41;5094994;28;20398;-82
2023/10/27 09:35:22;;;;;;;1.00;1.00;;;;;;;9.57;100.00;95448.06;5082200;28;20400;-82
2023/10/27 09:37:49;;;;;;;0.90;0.90;;;;;;;9.60;100.00;95449.34;5081090;28;20396;-83
2023/10/27 09:40:16;;;;;;;1.10;1.00;;;;;;;9.63;100.00;95448.75;5083196;28;20399;-81
2023/10/27 09:42:45;;;;;;;3.40;1.10;;;;;;;9.67;100.00;95452.41;5083636;28;20435;-83
2023/10/27 09:45:12;;;;;;;1.20;1.00;;;;;;;9.72;100.00;95462.84;5097143;28;20420;-83
2023/10/27 09:47:47;;;;;;;1.10;1.00;;;;;;;9.74;100.00;95460.72;5102602;28;20428;-83
2023/10/27 09:50:15;;;;;;;1.00;1.00;;;;;;;9.75;100.00;95464.16;5103246;28;20409;-83
2023/10/27 09:52:44;;;;;;;1.25;1.00;;;;;;;9.75;100.00;95470.22;5092568;28;20497;-84
2023/10/27 09:55:13;;;;;;;2.33;1.42;;;;;;;9.72;100.00;95478.72;5082376;28;20455;-85
2023/10/27 09:57:42;;;;;;;2.83;1.40;;;;;;;9.67;100.00;95479.59;5100675;28;20418;-84
2023/10/27 10:00:10;;;;;;;3.65;1.58;;;;;;;9.59;100.00;95480.25;5086819;28;20419;-84
2023/10/27 10:02:36;;;;;;;3.25;1.75;;;;;;;9.59;100.00;95495.31;5086958;28;20868;-84
2023/10/27 10:05:03;;;;;;;5.25;1.67;;;;;;;9.63;100.00;95489.16;5082464;28;20687;-83
2023/10/27 10:07:33;;;;;;;2.25;1.48;;;;;;;9.71;100.00;95503.56;5082276;28;20395;-83
2023/10/27 10:10:17;;;;;;;3.13;1.48;;;;;;;9.77;100.00;95496.34;5082188;28;20486;-82
2023/10/27 10:13:03;;;;;;;3.88;1.70;;;;;;;9.83;100.00;95500.47;5080349;28;20403;-82
2023/10/27 10:15:31;;;;;;;4.93;2.30;;;;;;;9.81;100.00;95498.09;5079782;28;20388;-82
2023/10/27 10:17:57;;;;;;;6.07;2.20;;;;;;;9.83;100.00;95495.19;5090086;28;20394;-82
2023/10/27 10:20:56;;;;;;;5.95;2.15;;;;;;;9.92;100.00;95502.13;5092581;28;20498;-83
2023/10/27 10:23:24;;;;;;;2.40;1.58;;;;;;;9.98;100.00;95502.81;5092398;28;20504;-83
2023/10/27 10:25:56;;;;;;;4.88;1.75;;;;;;;10.14;100.00;95506.75;5088188;28;20397;-83
2023/10/27 10:28:27;;;;;;;7.80;2.40;;;;;;;10.16;100.00;95501.94;5100125;28;20394;-83
2023/10/27 10:31:32;;;;;;;3.60;1.70;;;;;;;10.18;100.00;95499.81;5088315;28;20423;-83
2023/10/27 10:34:11;;;;;;;1.93;1.50;;;;;;;10.47;100.00;95504.78;5095792;28;20410;-83
2023/10/27 10:36:37;;;;;;;2.33;1.65;;;;;;;10.79;100.00;95485.34;5093578;28;20462;-82
2023/10/27 10:39:04;;;;;;;13.07;2.40;;;;;;;10.98;100.00;95491.25;5092957;28;20743;-81
2023/10/27 10:42:03;;;;;;;8.18;1.95;;;;;;;11.20;100.00;95490.50;5083359;28;20623;-82
2023/10/27 10:44:30;;;;;;;6.97;1.42;;;;;;;11.44;100.00;95496.25;5085717;28;20420;-84
2023/10/27 10:47:00;;;;;;;3.97;1.20;;;;;;;11.72;100.00;95496.91;5077072;28;20401;-85
2023/10/27 10:49:27;;;;;;;1.55;1.00;;;;;;;12.13;100.00;95490.56;5104140;28;20393;-86
2023/10/27 10:51:54;;;;;;;3.57;1.23;;;;;;;12.43;100.00;95491.59;5084866;28;20508;-84
2023/10/27 10:54:28;;;;;;;5.03;1.30;;;;;;;12.72;100.00;95491.78;5095455;28;20756;-82
2023/10/27 10:57:03;;;;;;;4.32;1.40;;;;;;;12.85;100.00;95485.59;5094424;28;20386;-84
2023/10/27 10:59:30;;;;;;;1.42;1.08;;;;;;;13.00;100.00;95487.00;5095329;28;20396;-82
2023/10/27 11:01:57;;;;;;;4.07;1.27;;;;;;;13.09;100.00;95483.22;5078117;28;20512;-81
2023/10/27 11:04:31;;;;;;;2.90;1.23;;;;;;;13.22;100.00;95494.84;5074000;28;20383;-81
2023/10/27 11:07:02;;;;;;;2.53;1.40;;;;;;;13.42;100.00;95485.44;5083235;28;20405;-81
2023/10/27 11:09:29;;;;;;;2.93;1.20;;;;;;;13.71;100.00;95490.06;5079179;28;20403;-82
2023/10/27 11:11:55;;;;;;;6.40;1.67;;;;;;;13.14;100.00;95495.63;5072642;28;20415;-81
2023/10/27 11:14:23;;;;;;;2.70;1.30;;;;;;;13.34;100.00;95472.94;5079727;28;20902;-81
2023/10/27 11:17:00;;;;;;;7.47;1.43;;;;;;;13.10;100.00;95481.34;5078754;28;20392;-81
2023/10/27 11:19:26;;;;;;;1.60;0.90;;;;;;;13.18;100.00;95473.41;5079038;28;20424;-84
2023/10/27 11:21:56;;;;;;;2.88;1.00;;;;;;;13.41;100.00;95471.34;5080821;28;20439;-82
2023/10/27 11:24:23;;;;;;;2.20;1.08;;;;;;;13.54;100.00;95473.03;5084601;28;20882;-84
2023/10/27 11:26:49;;;;;;;4.93;1.20;;;;;;;13.64;100.00;95468.50;5084933;28;20437;-84
2023/10/27 11:29:17;;;;;;;5.53;1.30;;;;;;;13.39;100.00;95470.88;5112874;28;21319;-83
2023/10/27 11:31:47;;;;;;;4.00;1.20;;;;;;;13.40;100.00;95469.00;5094098;28;20937;-81
2023/10/27 11:34:18;;;;;;;8.03;1.20;;;;;;;13.12;100.00;95471.22;5097529;28;20380;-82